Time;durP1;ratioP1;P1;durP2;ratioP2;P2;SDS_P1;SDS_P2;PMS_P1;PMS_P2;Temp;Humidity;BMP_temperature;BMP_pressure;BME280_temperature;BME280_humidity;BME280_pressure;Samples;Min_cycle;Max_cycle;Signal;HPM_P1;HPM_P2
2024/04/02 00:02:05;;;;;;;;;12.00;8.00;;;;;15.11;67.79;98447.63;113133;224;169806;-50
2024/04/02 00:04:43;;;;;;;;;21.00;14.00;;;;;15.12;68.33;98440.93;113329;224;40857;-51
2024/04/02 00:07:18;;;;;;;;;12.00;10.00;;;;;15.08;68.90;98425.41;113300;227;40538;-50
2024/04/02 00:09:54;;;;;;;;;15.00;9.00;;;;;15.08;69.23;98419.92;113115;224;169838;-52
2024/04/02 00:12:30;;;;;;;;;12.00;8.00;;;;;15.02;69.68;98427.13;113330;223;39675;-52
2024/04/02 00:15:06;;;;;;;;;11.00;8.00;;;;;14.98;70.08;98441.48;113187;224;169714;-53
2024/04/02 00:17:47;;;;;;;;;10.00;7.00;;;;;14.95;70.56;98452.06;113318;223;40514;-53
2024/04/02 00:20:22;;;;;;;;;9.00;8.00;;;;;14.97;70.70;98461.11;113128;223;170304;-50
2024/04/02 00:22:56;;;;;;;;;11.67;8.67;;;;;14.95;70.83;98464.30;113301;225;40030;-51
2024/04/02 00:25:34;;;;;;;;;10.00;7.00;;;;;14.95;71.27;98468.77;113285;223;40184;-51
2024/04/02 00:28:11;;;;;;;;;9.00;7.00;;;;;15.00;71.63;98471.17;113280;225;40175;-52
2024/04/02 00:30:47;;;;;;;;;9.00;7.00;;;;;14.98;71.81;98470.02;113321;227;39740;-54
2024/04/02 00:33:24;;;;;;;;;9.00;6.50;;;;;14.98;72.10;98481.06;113080;225;169928;-54
2024/04/02 00:36:05;;;;;;;;;8.00;6.00;;;;;14.91;72.54;98477.71;113294;228;41564;-55
2024/04/02 00:38:40;;;;;;;;;6.33;5.00;;;;;14.91;72.75;98476.08;113167;225;168948;-54
2024/04/02 00:41:17;;;;;;;;;4.50;4.00;;;;;14.90;73.02;98470.53;113304;225;41609;-55
2024/04/02 00:43:58;;;;;;;;;5.00;5.00;;;;;14.89;73.14;98473.80;113116;225;169833;-53
2024/04/02 00:46:32;;;;;;;;;6.00;5.00;;;;;14.88;73.43;98475.63;113291;228;40781;-52
2024/04/02 00:49:09;;;;;;;;;8.00;7.00;;;;;14.92;74.02;98487.34;113273;225;40415;-51
2024/04/02 00:51:47;;;;;;;;;6.50;4.50;;;;;14.93;74.04;98482.40;113099;224;169895;-51
2024/04/02 00:54:25;;;;;;;;;4.00;4.00;;;;;14.90;74.23;98484.02;113298;228;41633;-52
2024/04/02 00:57:00;;;;;;;;;6.00;5.00;;;;;14.86;74.54;98479.38;113087;224;169440;-52
2024/04/02 00:59:36;;;;;;;;;6.00;5.00;;;;;14.74;75.16;98480.83;113325;228;41131;-52
2024/04/02 01:02:12;;;;;;;;;9.00;7.00;;;;;14.76;75.19;98475.08;113137;225;170272;-53
2024/04/02 01:04:47;;;;;;;;;4.00;3.50;;;;;14.73;75.30;98471.20;113322;225;41487;-53
2024/04/02 01:07:30;;;;;;;;;7.00;5.00;;;;;14.74;75.46;98463.27;113308;228;41637;-53
2024/04/02 01:10:07;;;;;;;;;8.00;5.00;;;;;14.71;75.49;98461.79;113102;228;169253;-53
2024/04/02 01:12:45;;;;;;;;;5.00;3.00;;;;;14.75;75.67;98459.53;113329;228;41562;-53
2024/04/02 01:15:27;;;;;;;;;5.00;4.00;;;;;14.75;75.91;98453.05;113156;228;169599;-51
2024/04/02 01:18:05;;;;;;;;;4.00;4.00;;;;;14.77;76.01;98449.80;113332;224;40380;-51
2024/04/02 01:20:42;;;;;;;;;5.00;3.00;;;;;14.66;76.47;98453.87;113148;228;169470;-52
2024/04/02 01:23:22;;;;;;;;;3.00;2.00;;;;;14.63;76.55;98446.30;113318;225;40882;-52
2024/04/02 01:26:02;;;;;;;;;3.00;3.00;;;;;14.64;76.81;98437.29;113161;225;169505;-55
2024/04/02 01:28:45;;;;;;;;;3.00;2.00;;;;;14.61;76.79;98428.35;113263;228;40260;-52
2024/04/02 01:31:21;;;;;;;;;2.50;2.00;;;;;14.59;76.93;98413.17;113310;225;40914;-51
2024/04/02 01:33:54;;;;;;;;;2.00;2.00;;;;;14.60;76.87;98411.55;113096;224;169466;-52
2024/04/02 01:36:32;;;;;;;;;3.00;3.00;;;;;14.60;76.79;98405.73;113318;225;39837;-52
2024/04/02 01:39:07;;;;;;;;;4.00;3.00;;;;;14.61;76.89;98412.70;113149;228;169458;-54
2024/04/02 01:41:50;;;;;;;;;3.00;2.00;;;;;14.62;76.78;98409.12;113281;228;40722;-55
2024/04/02 01:44:34;;;;;;;;;5.00;4.00;;;;;14.55;77.14;98411.04;113126;224;169862;-54
2024/04/02 01:47:09;;;;;;;;;4.00;4.00;;;;;14.54;76.95;98417.94;113308;224;40109;-55
2024/04/02 01:49:48;;;;;;;;;7.00;5.00;;;;;14.54;77.11;98418.52;113215;224;169083;-54
2024/04/02 01:52:32;;;;;;;;;6.00;5.00;;;;;14.52;76.83;98435.58;113249;228;40563;-52
2024/04/02 01:55:07;;;;;;;;;7.00;6.00;;;;;14.51;76.67;98441.44;113356;225;39866;-52
2024/04/02 01:57:41;;;;;;;;;5.00;4.00;;;;;14.43;76.90;98445.63;113174;224;169687;-53
2024/04/02 02:00:17;;;;;;;;;5.67;5.00;;;;;14.36;77.00;98455.25;113348;225;39760;-52
2024/04/02 02:02:57;;;;;;;;;6.00;6.00;;;;;14.34;77.24;98451.05;113194;228;169182;-53
2024/04/02 02:05:34;;;;;;;;;6.00;6.00;;;;;14.35;76.99;98450.84;113338;224;39751;-53
2024/04/02 02:08:10;;;;;;;;;5.00;4.00;;;;;14.34;77.26;98448.40;113178;225;169570;-53
2024/04/02 02:10:48;;;;;;;;;6.00;5.00;;;;;14.31;77.34;98442.66;113317;225;40679;-51
2024/04/02 02:13:31;;;;;;;;;6.50;5.00;;;;;14.30;77.27;98435.63;113314;228;40126;-55
2024/04/02 02:16:09;;;;;;;;;5.33;4.33;;;;;14.32;77.11;98437.17;113065;228;168881;-53
2024/04/02 02:18:45;;;;;;;;;6.00;5.00;;;;;14.26;77.40;98437.44;113374;224;39681;-53
2024/04/02 02:21:22;;;;;;;;;6.00;5.00;;;;;14.29;77.28;98432.46;113114;224;169535;-54
2024/04/02 02:23:59;;;;;;;;;6.00;5.00;;;;;14.30;77.21;98440.67;113320;225;40101;-53
2024/04/02 02:26:33;;;;;;;;;5.00;4.00;;;;;14.35;77.24;98448.61;113082;225;169654;-53
2024/04/02 02:29:11;;;;;;;;;5.00;5.00;;;;;14.31;77.17;98461.55;113240;226;40939;-53
2024/04/02 02:31:48;;;;;;;;;6.00;5.00;;;;;14.30;77.21;98462.02;113148;224;169637;-52
2024/04/02 02:34:23;;;;;;;;;6.00;4.00;;;;;14.26;77.47;98452.65;113296;229;40128;-54
2024/04/02 02:36:57;;;;;;;;;6.00;5.00;;;;;14.16;77.72;98443.61;113291;224;40053;-55
2024/04/02 02:39:32;;;;;;;;;6.00;5.00;;;;;14.18;77.18;98436.79;113123;225;169291;-51
2024/04/02 02:42:08;;;;;;;;;7.00;6.00;;;;;14.23;77.08;98437.08;113356;224;41613;-51
2024/04/02 02:44:45;;;;;;;;;5.00;4.50;;;;;14.28;77.03;98446.74;112925;225;168863;-55
2024/04/02 02:47:24;;;;;;;;;6.00;5.00;;;;;14.26;76.86;98455.02;113385;224;41809;-56
2024/04/02 02:49:58;;;;;;;;;8.00;7.00;;;;;14.24;76.67;98465.83;113086;225;169297;-52
2024/04/02 02:52:32;;;;;;;;;9.00;8.00;;;;;14.17;76.88;98463.77;113157;224;39907;-52
2024/04/02 02:55:33;;;;;;;;;7.00;6.00;;;;;14.10;76.80;98458.33;113278;228;41755;-52
2024/04/02 02:58:19;;;;;;;;;6.00;5.00;;;;;14.08;77.04;98454.30;113074;228;42715;-52
2024/04/02 03:01:04;;;;;;;;;8.00;7.00;;;;;14.00;76.81;98454.77;113101;229;42795;-54
2024/04/02 03:03:42;;;;;;;;;7.00;6.00;;;;;13.94;77.00;98455.27;113077;229;169623;-51
2024/04/02 03:06:22;;;;;;;;;6.00;5.00;;;;;13.94;76.79;98451.25;113283;229;40267;-51
2024/04/02 03:09:00;;;;;;;;;10.50;8.00;;;;;13.93;77.28;98445.27;113114;225;169318;-50
2024/04/02 03:11:41;;;;;;;;;7.00;6.00;;;;;14.00;76.89;98446.09;113313;224;40338;-50
2024/04/02 03:14:20;;;;;;;;;7.00;6.00;;;;;13.93;77.10;98445.81;113106;229;170931;-54
2024/04/02 03:16:57;;;;;;;;;6.50;6.00;;;;;13.91;76.89;98457.95;113284;229;40733;-55
2024/04/02 03:19:32;;;;;;;;;7.00;6.00;;;;;13.91;76.88;98460.90;113315;229;41367;-53
2024/04/02 03:22:07;;;;;;;;;9.00;7.00;;;;;13.90;77.08;98456.10;113136;225;169262;-53
2024/04/02 03:24:42;;;;;;;;;8.00;7.00;;;;;13.92;76.94;98456.18;113309;225;40714;-52
2024/04/02 03:27:21;;;;;;;;;8.00;6.00;;;;;13.81;77.41;98453.85;113077;225;170656;-52
2024/04/02 03:29:57;;;;;;;;;8.00;7.00;;;;;13.79;77.10;98449.86;113338;224;40915;-51
2024/04/02 03:32:31;;;;;;;;;10.00;9.00;;;;;13.78;76.98;98447.59;113102;224;169598;-51
2024/04/02 03:35:07;;;;;;;;;7.00;7.00;;;;;13.72;77.21;98449.41;113210;229;40723;-53
2024/04/02 03:37:46;;;;;;;;;7.00;7.00;;;;;13.67;77.10;98452.56;113317;224;40282;-53
2024/04/02 03:40:21;;;;;;;;;8.50;6.50;;;;;13.66;77.13;98459.83;113121;224;40524;-55
2024/04/02 03:43:11;;;;;;;;;9.00;8.00;;;;;13.55;77.21;98458.48;113298;228;41438;-55
2024/04/02 03:45:54;;;;;;;;;13.00;10.00;;;;;13.54;77.35;98466.77;113119;229;169555;-52
2024/04/02 03:48:31;;;;;;;;;10.50;10.00;;;;;13.60;77.22;98469.77;113292;224;40363;-54
2024/04/02 03:51:08;;;;;;;;;10.00;8.00;;;;;13.60;77.07;98472.79;113085;224;169779;-55
2024/04/02 03:53:47;;;;;;;;;13.67;10.33;;;;;13.61;77.20;98476.21;113311;224;41086;-52
2024/04/02 03:56:33;;;;;;;;;10.00;9.00;;;;;13.62;77.08;98475.74;113074;224;169978;-53
2024/04/02 03:59:08;;;;;;;;;10.00;9.00;;;;;13.57;77.33;98469.72;113235;226;40134;-53
2024/04/02 04:01:46;;;;;;;;;10.00;9.00;;;;;13.57;77.48;98471.52;113310;228;40298;-53
2024/04/02 04:04:29;;;;;;;;;9.00;8.00;;;;;13.63;77.13;98466.42;113294;225;40655;-51
2024/04/02 04:07:03;;;;;;;;;8.00;7.00;;;;;13.53;77.04;98460.08;113345;225;40373;-51
2024/04/02 04:09:41;;;;;;;;;6.00;5.00;;;;;13.45;76.90;98456.96;113145;225;168560;-52
2024/04/02 04:12:17;;;;;;;;;9.00;7.50;;;;;13.40;76.77;98459.73;113372;228;39807;-53
2024/04/02 04:14:57;;;;;;;;;7.00;5.00;;;;;13.42;76.67;98470.55;113127;224;168745;-52
2024/04/02 04:17:36;;;;;;;;;6.00;6.00;;;;;13.38;76.52;98486.71;113342;225;41544;-51
2024/04/02 04:20:11;;;;;;;;;7.00;6.50;;;;;13.30;76.48;98492.05;113133;225;168965;-54
2024/04/02 04:22:53;;;;;;;;;6.50;6.00;;;;;13.29;76.37;98495.83;113319;225;39843;-54
2024/04/02 04:25:33;;;;;;;;;10.00;8.00;;;;;13.24;76.52;98515.41;113344;228;39952;-55
2024/04/02 04:28:10;;;;;;;;;10.00;8.00;;;;;13.22;76.74;98507.63;113115;224;169448;-56
2024/04/02 04:30:53;;;;;;;;;10.00;9.00;;;;;13.23;76.54;98499.13;113352;225;39880;-51
2024/04/02 04:33:30;;;;;;;;;9.00;8.00;;;;;13.22;76.39;98499.96;113001;225;169429;-53
2024/04/02 04:36:08;;;;;;;;;9.50;9.00;;;;;13.20;76.30;98495.12;113298;228;40980;-52
2024/04/02 04:38:49;;;;;;;;;8.50;7.50;;;;;13.20;76.40;98501.79;113106;225;170140;-52
2024/04/02 04:41:32;;;;;;;;;9.00;7.00;;;;;13.23;76.22;98517.29;113303;224;41310;-50
2024/04/02 04:44:13;;;;;;;;;11.50;10.00;;;;;13.22;76.34;98515.21;113147;228;169732;-54
2024/04/02 04:46:50;;;;;;;;;13.50;9.00;;;;;13.23;76.42;98511.64;113318;228;40236;-54
2024/04/02 04:49:30;;;;;;;;;9.50;8.50;;;;;13.24;76.33;98498.96;113302;225;40270;-53
2024/04/02 04:52:06;;;;;;;;;8.00;7.00;;;;;13.18;76.57;98477.96;113133;228;169292;-53
2024/04/02 04:54:43;;;;;;;;;9.00;8.00;;;;;13.16;76.63;98481.36;113328;225;41046;-55
2024/04/02 04:57:21;;;;;;;;;8.00;7.00;;;;;13.07;77.01;98509.38;113160;224;168936;-55
2024/04/02 04:59:57;;;;;;;;;9.00;7.00;;;;;12.95;77.27;98511.63;113337;224;40483;-55
2024/04/02 05:02:35;;;;;;;;;8.00;6.50;;;;;12.83;77.08;98519.64;113141;224;170573;-55
2024/04/02 05:05:16;;;;;;;;;11.00;9.00;;;;;12.72;77.24;98507.50;113347;228;40018;-51
2024/04/02 05:08:25;;;;;;;;;7.00;6.00;;;;;12.61;77.71;98498.57;113097;228;169918;-51
2024/04/02 05:11:05;;;;;;;;;8.00;6.00;;;;;12.56;77.88;98482.79;113291;224;40384;-54
2024/04/02 05:13:40;;;;;;;;;8.00;7.00;;;;;12.54;78.06;98477.67;113254;225;39698;-53
2024/04/02 05:16:20;;;;;;;;;6.00;6.00;;;;;12.53;78.02;98474.56;113085;229;168906;-53
2024/04/02 05:18:54;;;;;;;;;9.00;8.00;;;;;12.53;78.02;98477.83;113355;229;39809;-54
2024/04/02 05:21:31;;;;;;;;;8.00;7.00;;;;;12.52;78.02;98486.24;113091;225;169709;-54
2024/04/02 05:24:08;;;;;;;;;8.00;6.50;;;;;12.51;78.20;98504.05;113279;229;41887;-52
2024/04/02 05:26:47;;;;;;;;;7.50;6.50;;;;;12.53;78.33;98516.83;113078;229;170271;-51
2024/04/02 05:29:22;;;;;;;;;10.00;9.00;;;;;12.45;78.49;98532.40;113333;225;41100;-53
2024/04/02 05:31:56;;;;;;;;;10.00;9.00;;;;;12.51;78.62;98543.11;113129;225;169923;-53
2024/04/02 05:34:35;;;;;;;;;8.00;7.00;;;;;12.47;79.01;98546.52;113273;228;40437;-53
2024/04/02 05:37:13;;;;;;;;;9.67;8.33;;;;;12.42;79.04;98540.52;113345;225;39944;-53
2024/04/02 05:39:50;;;;;;;;;10.00;9.00;;;;;12.47;79.05;98530.69;113121;224;169651;-53
2024/04/02 05:42:28;;;;;;;;;10.00;8.00;;;;;12.48;79.25;98527.27;113388;228;40525;-53
2024/04/02 05:45:08;;;;;;;;;10.00;9.00;;;;;12.46;79.18;98530.47;113191;224;170447;-52
2024/04/02 05:47:57;;;;;;;;;11.00;10.00;;;;;12.48;79.25;98527.52;113353;228;40300;-52
2024/04/02 05:50:40;;;;;;;;;9.00;8.00;;;;;12.47;79.32;98519.27;113194;225;169764;-52
2024/04/02 05:53:20;;;;;;;;;8.00;8.00;;;;;12.41;79.32;98516.14;113335;227;40833;-52
2024/04/02 05:55:59;;;;;;;;;9.00;8.00;;;;;12.35;79.57;98520.88;113165;225;169372;-51
2024/04/02 05:58:40;;;;;;;;;9.00;8.00;;;;;12.35;79.64;98524.78;113358;224;39729;-53
2024/04/02 06:01:13;;;;;;;;;10.00;9.00;;;;;12.38;79.66;98524.34;113275;228;41259;-53
2024/04/02 06:03:51;;;;;;;;;9.00;7.00;;;;;12.30;79.87;98517.73;113138;225;169330;-52
2024/04/02 06:06:26;;;;;;;;;9.00;8.00;;;;;12.20;80.12;98520.62;113308;225;40968;-52
2024/04/02 06:09:00;;;;;;;;;10.00;8.00;;;;;12.20;80.13;98522.30;113134;228;169788;-51
2024/04/02 06:11:41;;;;;;;;;12.00;9.00;;;;;12.23;80.41;98527.84;113331;229;40742;-51
2024/04/02 06:14:19;;;;;;;;;8.00;7.00;;;;;12.25;80.62;98524.00;113099;224;170185;-51
2024/04/02 06:16:55;;;;;;;;;10.00;9.00;;;;;12.29;80.68;98527.10;113324;224;40812;-50
2024/04/02 06:19:35;;;;;;;;;10.00;7.00;;;;;12.26;80.95;98531.82;113182;225;40455;-52
2024/04/02 06:22:10;;;;;;;;;13.50;11.00;;;;;12.28;81.17;98538.20;113134;224;169607;-52
2024/04/02 06:24:45;;;;;;;;;9.00;8.00;;;;;12.21;81.59;98544.24;113364;225;41271;-56
2024/04/02 06:27:22;;;;;;;;;9.50;8.50;;;;;12.22;81.71;98546.48;113103;225;169433;-55
2024/04/02 06:30:06;;;;;;;;;11.00;8.00;;;;;12.17;81.91;98548.12;113399;225;41985;-53
2024/04/02 06:32:42;;;;;;;;;11.00;9.00;;;;;12.18;82.10;98545.06;113210;228;169974;-51
2024/04/02 06:35:20;;;;;;;;;12.00;10.00;;;;;12.16;82.18;98548.26;113351;225;40045;-55
2024/04/02 06:38:05;;;;;;;;;12.50;10.00;;;;;12.15;82.32;98550.26;113158;227;170810;-55
2024/04/02 06:40:42;;;;;;;;;12.00;9.00;;;;;12.09;82.75;98548.25;113329;224;41198;-54
2024/04/02 06:43:21;;;;;;;;;13.00;10.00;;;;;12.01;83.07;98552.00;113310;225;41008;-54
2024/04/02 06:46:01;;;;;;;;;9.00;7.50;;;;;12.05;82.91;98554.64;112607;224;636128;-54
2024/04/02 06:48:43;;;;;;;;;10.00;9.00;;;;;12.03;83.22;98558.37;113337;224;39956;-52
2024/04/02 06:51:39;;;;;;;;;10.50;7.50;;;;;12.02;83.25;98552.19;113152;224;169944;-57
2024/04/02 06:54:19;;;;;;;;;14.50;10.75;;;;;12.04;83.49;98549.09;113318;225;40873;-54
2024/04/02 06:56:54;;;;;;;;;7.50;5.50;;;;;12.09;83.64;98543.04;113123;225;170139;-54
2024/04/02 06:59:31;;;;;;;;;10.00;9.00;;;;;12.07;83.74;98538.38;113320;225;40535;-52
2024/04/02 07:02:23;;;;;;;;;9.50;7.50;;;;;12.08;83.87;98533.45;113140;224;170071;-52
2024/04/02 07:05:04;;;;;;;;;10.00;9.00;;;;;11.96;84.57;98532.70;113312;228;41489;-56
2024/04/02 07:07:44;;;;;;;;;9.50;8.00;;;;;11.93;84.69;98532.37;113352;225;40795;-56
2024/04/02 07:10:29;;;;;;;;;11.00;9.00;;;;;11.96;84.52;98535.51;113180;228;169297;-55
2024/04/02 07:13:10;;;;;;;;;10.00;8.50;;;;;11.92;84.68;98534.52;113390;225;40428;-56
2024/04/02 07:15:54;;;;;;;;;11.00;9.00;;;;;11.90;84.88;98529.62;113234;225;169970;-52
2024/04/02 07:18:37;;;;;;;;;11.50;9.00;;;;;11.85;85.10;98530.02;113403;224;39126;-55
2024/04/02 07:21:19;;;;;;;;;10.00;9.00;;;;;11.76;85.49;98531.90;113186;228;169746;-54
2024/04/02 07:23:54;;;;;;;;;10.00;8.00;;;;;11.85;85.38;98528.94;113311;225;40306;-51
2024/04/02 07:26:32;;;;;;;;;10.00;9.00;;;;;11.84;85.37;98530.17;113135;224;170238;-50
2024/04/02 07:29:10;;;;;;;;;10.00;9.00;;;;;11.81;85.50;98534.12;113298;228;39580;-51
2024/04/02 07:31:46;;;;;;;;;11.00;9.50;;;;;11.82;85.76;98531.59;113323;224;41934;-52
2024/04/02 07:34:27;;;;;;;;;10.00;8.00;;;;;11.86;85.66;98531.38;113211;229;41458;-52
2024/04/02 07:37:06;;;;;;;;;9.00;8.00;;;;;11.74;85.80;98535.17;113309;224;41388;-52
2024/04/02 07:39:48;;;;;;;;;11.00;9.00;;;;;11.72;85.99;98538.65;112948;228;169607;-51
2024/04/02 07:42:24;;;;;;;;;9.00;8.00;;;;;11.77;86.14;98544.21;113278;225;40745;-53
2024/04/02 07:45:04;;;;;;;;;6.50;6.00;;;;;11.74;86.22;98553.23;113176;224;169516;-51
2024/04/02 07:47:38;;;;;;;;;10.00;8.00;;;;;11.69;86.24;98558.10;113321;224;41872;-51
2024/04/02 07:50:15;;;;;;;;;8.00;7.00;;;;;11.72;86.23;98558.94;113199;228;170249;-56
2024/04/02 07:52:53;;;;;;;;;8.00;6.00;;;;;11.73;86.22;98561.30;113150;229;40633;-55
2024/04/02 07:55:30;;;;;;;;;10.00;9.00;;;;;11.70;86.32;98561.94;113373;228;40508;-56
2024/04/02 07:58:13;;;;;;;;;7.67;6.67;;;;;11.72;86.31;98559.20;113141;229;169921;-54
2024/04/02 08:00:52;;;;;;;;;8.00;7.50;;;;;11.68;86.28;98550.73;113376;224;40049;-53
2024/04/02 08:03:28;;;;;;;;;7.00;6.00;;;;;11.60;86.58;98550.77;113202;224;169805;-54
2024/04/02 08:06:06;;;;;;;;;9.00;8.00;;;;;11.62;86.57;98551.73;113338;225;40038;-56
2024/04/02 08:08:41;;;;;;;;;6.00;5.00;;;;;11.65;86.63;98553.52;113086;225;169533;-55
2024/04/02 08:11:26;;;;;;;;;7.00;6.00;;;;;11.55;86.77;98558.46;113327;224;40748;-56
2024/04/02 08:14:04;;;;;;;;;6.00;5.00;;;;;11.53;86.96;98562.11;113127;225;169945;-56
2024/04/02 08:16:46;;;;;;;;;7.00;6.00;;;;;11.56;87.08;98566.43;113268;229;40153;-56
2024/04/02 08:19:24;;;;;;;;;7.00;6.00;;;;;11.59;86.98;98571.27;113293;228;39832;-54
2024/04/02 08:21:58;;;;;;;;;8.00;7.00;;;;;11.53;87.25;98573.40;113104;225;169796;-54
2024/04/02 08:24:38;;;;;;;;;10.00;8.00;;;;;11.57;87.18;98579.33;113308;229;40832;-53
2024/04/02 08:27:22;;;;;;;;;6.00;6.00;;;;;11.64;87.28;98586.82;113104;224;170531;-53
2024/04/02 08:29:58;;;;;;;;;8.00;7.00;;;;;11.66;86.96;98596.39;113327;225;40848;-53
2024/04/02 08:32:39;;;;;;;;;6.00;5.00;;;;;11.45;87.36;98605.67;113143;228;170414;-52
2024/04/02 08:35:15;;;;;;;;;7.00;5.67;;;;;11.43;87.64;98610.55;113312;228;40835;-50
2024/04/02 08:37:54;;;;;;;;;6.00;6.00;;;;;11.44;87.61;98609.94;113343;225;40755;-50
2024/04/02 08:40:35;;;;;;;;;8.00;7.00;;;;;11.44;87.80;98606.04;113344;225;39916;-53
2024/04/02 08:43:10;;;;;;;;;6.00;5.00;;;;;11.51;87.69;98602.67;113299;228;39742;-53
2024/04/02 08:45:48;;;;;;;;;7.00;6.00;;;;;11.54;87.79;98603.16;113168;228;172634;-54
2024/04/02 08:48:25;;;;;;;;;5.33;5.00;;;;;11.61;87.84;98603.31;113356;225;40952;-52
2024/04/02 08:51:05;;;;;;;;;7.00;6.00;;;;;11.64;87.94;98599.38;113103;225;169835;-55
2024/04/02 08:53:39;;;;;;;;;7.00;6.00;;;;;11.58;88.31;98600.23;113325;225;40803;-51
2024/04/02 08:56:15;;;;;;;;;8.00;7.00;;;;;11.61;88.24;98603.59;113134;228;170164;-52
2024/04/02 08:58:50;;;;;;;;;7.00;6.00;;;;;11.55;88.41;98603.23;113310;225;40394;-53
2024/04/02 09:01:24;;;;;;;;;9.00;7.00;;;;;11.58;88.53;98606.00;113310;224;40237;-53
2024/04/02 09:04:03;;;;;;;;;9.50;8.00;;;;;11.64;88.25;98612.84;113104;225;169891;-52
2024/04/02 09:06:39;;;;;;;;;7.00;7.00;;;;;11.63;88.53;98614.50;113258;228;40659;-52
2024/04/02 09:09:26;;;;;;;;;6.50;6.00;;;;;11.56;88.60;98618.52;113116;225;170411;-52
2024/04/02 09:12:04;;;;;;;;;7.00;6.00;;;;;11.50;88.54;98625.86;113266;228;40698;-52
2024/04/02 09:14:40;;;;;;;;;7.00;6.00;;;;;11.54;88.32;98627.87;113117;225;170102;-54
2024/04/02 09:17:16;;;;;;;;;7.00;7.00;;;;;11.54;88.49;98632.41;113233;225;42113;-53
2024/04/02 09:19:53;;;;;;;;;9.00;7.00;;;;;11.58;88.57;98639.22;113349;228;40668;-52
2024/04/02 09:22:38;;;;;;;;;6.00;5.00;;;;;11.57;88.60;98642.02;113197;226;41461;-52
2024/04/02 09:25:13;;;;;;;;;8.00;7.00;;;;;11.61;88.68;98645.67;113424;224;40033;-53
2024/04/02 09:27:52;;;;;;;;;8.00;7.00;;;;;11.72;88.43;98644.24;113179;224;170045;-54
2024/04/02 09:30:31;;;;;;;;;8.67;8.00;;;;;11.77;88.52;98654.20;113336;224;40163;-51
2024/04/02 09:33:10;;;;;;;;;9.00;8.00;;;;;11.81;88.49;98667.17;113142;225;170231;-50
2024/04/02 09:36:09;;;;;;;;;9.50;7.50;;;;;11.78;88.31;98667.27;113363;224;40964;-51
2024/04/02 09:38:46;;;;;;;;;9.00;7.00;;;;;11.74;88.56;98672.70;113211;228;169999;-50
2024/04/02 09:41:24;;;;;;;;;8.00;7.00;;;;;11.76;88.32;98680.69;113318;225;40385;-50
2024/04/02 09:43:59;;;;;;;;;9.00;7.00;;;;;11.79;88.24;98686.11;113350;228;39903;-52
2024/04/02 09:46:39;;;;;;;;;9.00;8.00;;;;;11.83;88.08;98686.69;113067;227;41654;-51
2024/04/02 09:49:17;;;;;;;;;9.00;8.00;;;;;11.80;88.35;98687.89;113168;229;40048;-51
2024/04/02 09:51:58;;;;;;;;;9.00;8.00;;;;;11.80;88.31;98692.58;113096;225;169908;-51
2024/04/02 09:54:40;;;;;;;;;9.50;8.00;;;;;11.89;88.24;98695.86;113400;228;40812;-52
2024/04/02 09:57:22;;;;;;;;;9.00;7.50;;;;;11.96;88.12;98698.42;113059;224;170524;-53
2024/04/02 09:59:59;;;;;;;;;9.00;7.00;;;;;11.92;88.09;98696.17;113189;225;40366;-55
2024/04/02 10:02:39;;;;;;;;;9.00;7.00;;;;;11.95;87.96;98698.03;113012;226;170582;-53
2024/04/02 10:05:23;;;;;;;;;11.00;9.00;;;;;11.98;87.80;98704.05;113203;229;40307;-52
2024/04/02 10:08:03;;;;;;;;;8.00;7.00;;;;;12.00;87.83;98705.39;113242;226;40643;-51
2024/04/02 10:10:43;;;;;;;;;10.00;8.00;;;;;11.90;88.23;98709.20;113226;229;42026;-50
2024/04/02 10:13:20;;;;;;;;;10.00;9.00;;;;;11.89;88.33;98709.97;113228;226;40720;-50
2024/04/02 10:16:09;;;;;;;;;10.00;8.00;;;;;11.81;88.45;98718.30;113123;225;170185;-52
2024/04/02 10:18:56;;;;;;;;;9.75;8.00;;;;;11.81;88.75;98717.76;113173;229;40361;-55
2024/04/02 10:21:43;;;;;;;;;11.00;9.00;;;;;11.87;88.48;98721.94;112988;225;170056;-54
2024/04/02 10:24:20;;;;;;;;;12.00;10.00;;;;;11.97;88.19;98731.71;113109;226;42969;-53
2024/04/02 10:26:56;;;;;;;;;11.00;9.00;;;;;12.01;88.21;98731.83;113007;229;170092;-52
2024/04/02 10:29:39;;;;;;;;;14.00;11.00;;;;;12.01;88.19;98735.63;113139;225;39813;-51
2024/04/02 10:32:26;;;;;;;;;14.00;10.00;;;;;11.93;88.03;98743.94;113005;229;170485;-51
2024/04/02 10:35:07;;;;;;;;;10.00;8.00;;;;;11.97;87.92;98748.13;113198;224;40179;-52
2024/04/02 10:37:43;;;;;;;;;12.00;11.00;;;;;12.05;87.92;98749.27;113287;224;40037;-53
2024/04/02 10:40:21;;;;;;;;;15.33;12.00;;;;;12.03;87.94;98758.12;113105;224;170699;-54
2024/04/02 10:42:57;;;;;;;;;16.00;13.00;;;;;12.10;87.96;98757.77;113315;224;42204;-53
2024/04/02 10:45:35;;;;;;;;;19.00;15.00;;;;;12.22;87.88;98762.63;113023;229;170140;-53
2024/04/02 10:48:12;;;;;;;;;14.00;12.00;;;;;12.33;87.99;98759.70;113336;228;40576;-53
2024/04/02 10:50:49;;;;;;;;;15.00;12.00;;;;;12.44;87.86;98763.34;113122;228;170842;-52
2024/04/02 10:53:44;;;;;;;;;17.00;13.00;;;;;12.57;87.85;98764.18;113260;225;40806;-54
2024/04/02 10:56:20;;;;;;;;;18.50;15.00;;;;;12.54;87.70;98765.75;113160;224;170556;-53
2024/04/02 10:58:56;;;;;;;;;15.50;13.75;;;;;12.68;87.36;98766.27;113328;225;40004;-54
2024/04/02 11:01:38;;;;;;;;;16.00;14.00;;;;;12.72;87.84;98767.23;113370;225;39931;-55
2024/04/02 11:04:15;;;;;;;;;17.00;15.00;;;;;12.76;87.33;98764.70;113138;228;170226;-54
2024/04/02 11:06:59;;;;;;;;;22.00;17.00;;;;;12.72;86.94;98770.38;113344;224;39797;-55
2024/04/02 11:09:36;;;;;;;;;19.00;15.50;;;;;12.69;86.88;98765.22;113069;228;169588;-50
2024/04/02 11:12:13;;;;;;;;;24.00;17.50;;;;;12.70;86.87;98771.36;113316;224;40489;-50
2024/04/02 11:14:50;;;;;;;;;22.50;17.50;;;;;12.70;86.44;98772.94;113143;224;169843;-53
2024/04/02 11:17:31;;;;;;;;;17.00;14.00;;;;;12.70;86.76;98775.33;113215;225;40269;-53
2024/04/02 11:20:10;;;;;;;;;17.00;15.00;;;;;12.72;86.65;98782.55;113303;224;41383;-52
2024/04/02 11:25:38;;;;;;;;;22.00;17.00;;;;;12.64;86.38;98783.61;113147;225;39829;-52
2024/04/02 11:28:22;;;;;;;;;20.00;15.00;;;;;12.57;86.45;98784.06;112991;225;171143;-52
2024/04/02 11:31:02;;;;;;;;;15.00;12.00;;;;;12.55;86.48;98793.13;113324;225;40449;-51
2024/04/02 11:33:41;;;;;;;;;16.00;12.50;;;;;12.50;86.38;98795.30;113178;228;170349;-53
2024/04/02 11:36:16;;;;;;;;;18.00;13.67;;;;;12.52;86.24;98800.27;113383;228;40971;-53
2024/04/02 11:38:51;;;;;;;;;14.00;10.00;;;;;12.47;86.54;98803.15;113162;224;170600;-51
2024/04/02 11:41:27;;;;;;;;;15.50;12.50;;;;;12.43;86.25;98810.40;113321;228;40461;-51
2024/04/02 11:44:04;;;;;;;;;14.00;11.00;;;;;12.45;86.32;98817.48;113220;226;39691;-51
2024/04/02 11:46:43;;;;;;;;;16.50;14.00;;;;;12.43;86.34;98819.60;113085;228;40165;-52
2024/04/02 11:49:24;;;;;;;;;16.00;13.50;;;;;12.48;86.01;98827.00;113339;224;40476;-53
2024/04/02 11:52:06;;;;;;;;;16.00;12.00;;;;;12.47;85.97;98824.02;113134;228;169540;-53
2024/04/02 11:54:40;;;;;;;;;14.00;13.00;;;;;12.43;85.79;98827.77;113357;224;40651;-50
2024/04/02 12:00:16;;;;;;;;;15.00;12.00;;;;;12.29;86.11;98840.43;113325;224;42500;-56
2024/04/02 12:02:57;;;;;;;;;14.00;11.00;;;;;12.23;85.86;98842.41;113178;224;170442;-55
2024/04/02 12:05:35;;;;;;;;;17.67;14.00;;;;;12.22;86.03;98846.73;113280;228;40579;-55
2024/04/02 12:08:11;;;;;;;;;16.00;14.00;;;;;12.19;86.26;98844.86;113300;228;40298;-53
2024/04/02 12:10:46;;;;;;;;;15.00;12.50;;;;;12.15;86.28;98846.52;113398;224;39980;-50
2024/04/02 12:13:25;;;;;;;;;14.00;12.00;;;;;12.15;86.83;98847.32;113356;225;41214;-51
2024/04/02 12:16:02;;;;;;;;;16.00;12.00;;;;;12.22;86.77;98852.39;113184;225;170018;-52
2024/04/02 12:18:40;;;;;;;;;16.00;13.00;;;;;12.22;86.50;98850.94;113358;225;41356;-52
2024/04/02 12:21:24;;;;;;;;;16.00;13.00;;;;;12.18;86.52;98855.51;113188;225;170423;-53
2024/04/02 12:24:00;;;;;;;;;12.75;10.75;;;;;12.19;86.77;98856.33;113384;225;41192;-55